Time;durP1;ratioP1;P1;durP2;ratioP2;P2;SDS_P1;SDS_P2;PMS_P1;PMS_P2;Temp;Humidity;BMP_temperature;BMP_pressure;BME280_temperature;BME280_humidity;BME280_pressure;Samples;Min_cycle;Max_cycle;Signal;HPM_P1;HPM_P2
2022/04/11 00:00:47;;;;;;;3.00;2.90;;;;;;;2.92;74.39;101543.63;6088800;23;20479;-74
2022/04/11 00:03:13;;;;;;;3.10;3.00;;;;;;;2.89;75.02;101546.28;6096148;23;20012;-74
2022/04/11 00:05:40;;;;;;;4.47;4.28;;;;;;;2.75;75.00;101529.06;6107842;23;20021;-74
2022/04/11 00:08:06;;;;;;;2.90;2.80;;;;;;;2.93;75.21;101542.78;6130038;23;20079;-73
2022/04/11 00:10:33;;;;;;;4.15;3.95;;;;;;;2.76;74.78;101520.41;6080951;23;20084;-74
2022/04/11 00:13:07;;;;;;;3.15;3.05;;;;;;;2.83;75.19;101531.59;6109429;23;20029;-73
2022/04/11 00:15:38;;;;;;;3.10;3.00;;;;;;;2.89;75.06;101546.28;6080132;23;20018;-73
2022/04/11 00:18:06;;;;;;;3.00;2.90;;;;;;;2.90;74.72;101541.03;6126837;23;20036;-73
2022/04/11 00:20:33;;;;;;;2.70;2.60;;;;;;;2.89;74.57;101538.50;6138416;23;20009;-74
2022/04/11 00:23:00;;;;;;;3.10;3.00;;;;;;;2.89;74.83;101536.75;6122872;23;20037;-74
2022/04/11 00:25:26;;;;;;;3.25;3.10;;;;;;;2.80;74.87;101542.84;6122533;23;20515;-71
2022/04/11 00:27:53;;;;;;;3.00;2.90;;;;;;;2.86;75.61;101538.50;6109151;23;20023;-75
2022/04/11 00:30:19;;;;;;;3.05;2.95;;;;;;;2.84;75.32;101537.66;6112520;23;20025;-73
2022/04/11 00:32:46;;;;;;;3.67;3.58;;;;;;;2.67;74.68;101507.53;6116990;23;20104;-74
2022/04/11 00:35:13;;;;;;;3.13;3.03;;;;;;;2.56;75.82;101489.44;6121009;23;20025;-72
2022/04/11 00:37:41;;;;;;;4.53;4.32;;;;;;;2.82;75.66;101532.47;6095702;23;20032;-73
2022/04/11 00:40:08;;;;;;;3.00;2.90;;;;;;;2.82;75.29;101523.84;6108999;23;20021;-72
2022/04/11 00:42:35;;;;;;;4.93;4.72;;;;;;;2.80;75.24;101527.28;6114179;23;20100;-73
2022/04/11 00:45:03;;;;;;;3.40;3.30;;;;;;;2.82;75.30;101518.66;6112356;23;20013;-73
2022/04/11 00:47:30;;;;;;;4.55;4.35;;;;;;;2.68;75.17;101506.63;6105846;23;20018;-73
2022/04/11 00:50:04;;;;;;;3.00;2.90;;;;;;;2.57;74.89;101477.34;6125531;23;20040;-76
2022/04/11 00:52:32;;;;;;;4.82;4.63;;;;;;;2.78;75.43;101512.63;6123950;23;20041;-74
2022/04/11 00:55:01;;;;;;;3.13;3.03;;;;;;;2.52;75.03;101466.16;6109356;23;20498;-74
2022/04/11 00:57:28;;;;;;;3.22;3.13;;;;;;;1.78;76.01;101348.34;6121816;23;20024;-74
2022/04/11 00:59:55;;;;;;;3.60;3.40;;;;;;;2.79;75.25;101506.59;6103699;23;20075;-74
2022/04/11 01:02:21;;;;;;;3.55;3.35;;;;;;;2.77;75.51;101504.00;6125150;23;20017;-76
2022/04/11 01:04:48;;;;;;;3.00;2.90;;;;;;;2.59;75.63;101475.63;6112540;23;20029;-73
2022/04/11 01:07:15;;;;;;;3.13;3.03;;;;;;;2.64;75.81;101479.03;6121017;23;20050;-74
2022/04/11 01:09:42;;;;;;;4.53;4.32;;;;;;;2.78;75.69;101503.09;6121995;23;20022;-75
2022/04/11 01:12:10;;;;;;;3.03;2.92;;;;;;;2.60;75.79;101485.94;6136339;23;20084;-74
2022/04/11 01:14:36;;;;;;;4.85;4.65;;;;;;;2.77;76.29;101506.59;6118199;23;20028;-73
2022/04/11 01:17:03;;;;;;;3.13;3.03;;;;;;;2.77;76.51;101496.22;6103284;23;20018;-74
2022/04/11 01:19:30;;;;;;;3.67;3.58;;;;;;;2.77;76.59;101488.44;6110667;23;20658;-74
2022/04/11 01:21:56;;;;;;;3.08;2.97;;;;;;;2.73;76.65;101478.13;6117938;23;20014;-74
2022/04/11 01:24:23;;;;;;;2.78;2.67;;;;;;;2.56;76.77;101453.16;6124203;23;20072;-72
2022/04/11 01:26:49;;;;;;;3.00;2.90;;;;;;;2.78;76.73;101487.56;6118997;23;20043;-72
2022/04/11 01:29:17;;;;;;;2.95;2.85;;;;;;;2.80;76.91;101482.38;6127024;23;20048;-72
2022/04/11 01:31:44;;;;;;;3.45;3.35;;;;;;;2.79;77.10;101483.25;6106075;23;20281;-73
2022/04/11 01:34:10;;;;;;;3.10;3.00;;;;;;;2.76;77.18;101478.94;6114361;23;20036;-74
2022/04/11 01:36:37;;;;;;;4.38;4.18;;;;;;;2.66;76.84;101456.53;6106487;23;20446;-76
2022/04/11 01:39:04;;;;;;;2.90;2.80;;;;;;;2.86;76.66;101476.28;6117036;23;20018;-73
2022/04/11 01:41:30;;;;;;;4.03;3.83;;;;;;;2.64;76.59;101427.19;6119224;23;20064;-74
2022/04/11 01:43:56;;;;;;;2.80;2.70;;;;;;;2.93;76.39;101472.78;6116011;23;20562;-72
2022/04/11 01:46:23;;;;;;;2.80;2.70;;;;;;;2.96;75.69;101457.19;6114104;23;20076;-72
2022/04/11 01:48:49;;;;;;;3.00;2.90;;;;;;;2.93;75.41;101459.81;6113264;23;20454;-73
2022/04/11 01:51:16;;;;;;;3.25;3.15;;;;;;;2.97;75.04;101461.50;6124088;23;20049;-73
2022/04/11 01:53:42;;;;;;;4.53;4.32;;;;;;;2.88;74.76;101440.84;6117732;23;20029;-72
2022/04/11 01:56:09;;;;;;;2.80;2.70;;;;;;;2.89;74.81;101433.06;6105403;23;20017;-72
2022/04/11 01:58:35;;;;;;;4.57;4.38;;;;;;;2.77;74.60;101412.41;6109323;23;20032;-74
2022/04/11 02:01:02;;;;;;;3.17;3.08;;;;;;;2.90;74.92;101433.91;6110809;23;20031;-73
2022/04/11 02:03:29;;;;;;;4.25;4.05;;;;;;;3.11;74.33;101463.97;6103863;23;20076;-73
2022/04/11 02:05:57;;;;;;;2.90;2.80;;;;;;;3.11;74.07;101461.41;6097626;23;20406;-72
2022/04/11 02:08:24;;;;;;;3.60;3.40;;;;;;;2.92;74.10;101429.56;6109127;23;20018;-73
2022/04/11 02:10:51;;;;;;;3.00;2.90;;;;;;;3.12;74.30;101461.34;6112131;23;20056;-74
2022/04/11 02:13:18;;;;;;;3.00;2.90;;;;;;;3.00;73.63;101430.34;6104039;23;20014;-73
2022/04/11 02:15:44;;;;;;;3.95;3.75;;;;;;;3.15;73.46;101457.91;6098674;23;20894;-72
2022/04/11 02:18:11;;;;;;;3.00;2.90;;;;;;;2.68;73.57;101383.97;6113355;23;20010;-72
2022/04/11 02:20:37;;;;;;;5.07;4.75;;;;;;;3.10;73.76;101457.91;6105640;23;20537;-73
2022/04/11 02:23:04;;;;;;;2.80;2.70;;;;;;;2.88;73.32;101417.50;6123632;23;20028;-74
2022/04/11 02:25:34;;;;;;;4.25;4.05;;;;;;;2.67;74.10;101390.06;6121791;23;20833;-73
2022/04/11 02:28:01;;;;;;;3.17;3.08;;;;;;;3.12;73.52;101456.16;6116443;23;20024;-74
2022/04/11 02:30:28;;;;;;;3.53;3.40;;;;;;;3.12;73.41;101455.31;6114199;23;20014;-73
2022/04/11 02:32:55;;;;;;;3.22;3.13;;;;;;;2.62;72.78;101374.53;6103195;23;20092;-72
2022/04/11 02:35:22;;;;;;;2.92;2.83;;;;;;;3.06;72.69;101447.59;6120993;23;20071;-71
2022/04/11 02:37:49;;;;;;;2.80;2.70;;;;;;;3.11;72.79;101457.06;6112245;23;20094;-74
2022/04/11 02:40:16;;;;;;;3.40;3.20;;;;;;;2.93;72.63;101433.88;6085635;23;20620;-72
2022/04/11 02:42:44;;;;;;;4.47;4.28;;;;;;;3.08;73.09;101454.47;6112778;23;20025;-73
2022/04/11 02:45:12;;;;;;;2.70;2.60;;;;;;;3.08;73.10;101454.47;6109995;23;20021;-73
2022/04/11 02:47:39;;;;;;;4.45;4.25;;;;;;;3.09;73.13;101452.75;6072535;23;20014;-72
2022/04/11 02:50:06;;;;;;;2.78;2.67;;;;;;;2.54;72.51;101377.16;6112752;23;20022;-74
2022/04/11 02:52:32;;;;;;;4.05;3.88;;;;;;;3.00;73.28;101462.31;6103260;23;20030;-72
2022/04/11 02:55:00;;;;;;;3.00;2.90;;;;;;;2.82;73.12;101430.50;6113931;23;20438;-74
2022/04/11 02:57:26;;;;;;;3.55;3.35;;;;;;;2.71;73.41;101417.66;6120141;23;20427;-73
2022/04/11 02:59:53;;;;;;;3.00;2.90;;;;;;;2.61;72.90;101403.91;6113034;23;20080;-74
2022/04/11 03:02:20;;;;;;;3.00;2.90;;;;;;;2.55;73.66;101406.56;6128643;23;20041;-74
2022/04/11 03:04:46;;;;;;;3.88;3.70;;;;;;;2.75;73.47;101438.34;6108566;23;20019;-72
2022/04/11 03:07:13;;;;;;;2.90;2.80;;;;;;;2.68;73.58;101431.47;6114925;23;20448;-73
2022/04/11 03:09:39;;;;;;;4.45;4.25;;;;;;;2.84;72.96;101455.53;6110090;23;20017;-73
2022/04/11 03:12:06;;;;;;;2.80;2.70;;;;;;;2.79;73.76;101465.09;6109005;23;20096;-71
2022/04/11 03:14:33;;;;;;;4.50;4.30;;;;;;;2.52;74.21;101429.88;6093139;23;20028;-72
2022/04/11 03:16:59;;;;;;;3.08;2.97;;;;;;;2.63;73.87;101438.44;6111427;23;20014;-72
2022/04/11 03:19:26;;;;;;;2.97;2.88;;;;;;;2.78;73.87;101464.22;6124577;23;20076;-74
2022/04/11 03:21:52;;;;;;;2.83;2.72;;;;;;;2.75;74.14;101460.81;6117074;23;20045;-74
2022/04/11 03:24:19;;;;;;;2.90;2.80;;;;;;;2.73;73.87;101454.78;6127454;23;20044;-72
2022/04/11 03:26:46;;;;;;;2.97;2.88;;;;;;;2.71;74.00;101459.13;6114192;23;20122;-73
2022/04/11 03:29:12;;;;;;;3.30;3.10;;;;;;;2.67;73.68;101454.84;6119093;23;20025;-71
2022/04/11 03:31:38;;;;;;;4.75;4.55;;;;;;;2.69;73.56;101460.88;6102721;23;20025;-72
2022/04/11 03:34:05;;;;;;;3.05;2.95;;;;;;;2.59;73.88;101449.72;6086285;23;20073;-73
2022/04/11 03:36:32;;;;;;;4.78;4.47;;;;;;;2.60;73.93;101447.06;6103881;23;20073;-73
2022/04/11 03:38:58;;;;;;;2.90;2.80;;;;;;;2.39;74.11;101411.84;6112197;23;20014;-74
2022/04/11 03:41:25;;;;;;;2.70;2.60;;;;;;;2.62;74.27;101448.81;6116183;23;20018;-75
2022/04/11 03:43:51;;;;;;;2.90;2.80;;;;;;;2.59;74.63;101441.94;6109502;23;20016;-76
2022/04/11 03:46:18;;;;;;;2.90;2.80;;;;;;;2.43;74.09;101404.06;6115291;23;20084;-72
2022/04/11 03:48:44;;;;;;;4.15;3.95;;;;;;;2.64;74.01;101458.28;6104210;23;20013;-73
2022/04/11 03:51:11;;;;;;;3.00;2.90;;;;;;;2.43;74.08;101414.41;6110164;23;20031;-72
2022/04/11 03:53:37;;;;;;;4.45;4.25;;;;;;;2.37;74.01;101410.97;6115293;23;20029;-73
2022/04/11 03:56:04;;;;;;;2.80;2.70;;;;;;;2.43;74.39;101428.22;6118890;23;20027;-72
2022/04/11 03:58:31;;;;;;;4.28;4.07;;;;;;;1.96;74.81;101359.44;6117715;23;20544;-74
2022/04/11 04:00:59;;;;;;;2.90;2.80;;;;;;;2.42;74.83;101447.22;6117164;23;20621;-73
2022/04/11 04:03:29;;;;;;;3.28;3.15;;;;;;;2.22;74.67;101405.91;6121897;23;20029;-69
2022/04/11 04:05:56;;;;;;;2.97;2.88;;;;;;;2.45;74.74;101439.44;6087063;23;20097;-72
2022/04/11 04:08:23;;;;;;;2.80;2.70;;;;;;;2.44;74.92;101439.44;6123131;23;20015;-73
2022/04/11 04:10:49;;;;;;;3.13;3.03;;;;;;;2.25;74.80;101411.06;6120322;23;20021;-73
2022/04/11 04:13:16;;;;;;;3.10;3.00;;;;;;;2.30;74.48;101419.66;6114240;23;20076;-72
2022/04/11 04:15:45;;;;;;;4.75;4.55;;;;;;;2.32;75.06;101441.22;6125940;23;20020;-75
2022/04/11 04:18:12;;;;;;;2.85;2.75;;;;;;;2.23;74.87;101430.09;6112152;23;20020;-75
2022/04/11 04:20:39;;;;;;;4.40;4.20;;;;;;;2.12;75.07;101418.03;6112077;23;20018;-72
2022/04/11 04:23:06;;;;;;;2.72;2.63;;;;;;;2.34;74.87;101431.72;6115096;23;20025;-73
2022/04/11 04:25:36;;;;;;;4.22;4.03;;;;;;;1.25;74.53;101253.78;6118953;23;20016;-73
2022/04/11 04:28:03;;;;;;;2.80;2.70;;;;;;;2.30;74.61;101427.41;6116726;23;20028;-72
2022/04/11 04:30:30;;;;;;;3.42;3.33;;;;;;;2.26;74.81;101430.03;6109325;23;20636;-73
2022/04/11 04:33:00;;;;;;;2.70;2.60;;;;;;;1.96;74.44;101401.72;6111399;23;20048;-73
2022/04/11 04:35:29;;;;;;;3.03;2.92;;;;;;;2.05;75.38;101425.88;6115153;23;20017;-69
2022/04/11 04:37:56;;;;;;;2.90;2.80;;;;;;;2.02;75.37;101424.13;6126388;23;20014;-69
2022/04/11 04:40:22;;;;;;;3.17;3.08;;;;;;;2.02;75.72;101433.63;6094667;23;20016;-70
2022/04/11 04:42:49;;;;;;;2.80;2.70;;;;;;;1.90;75.76;101426.78;6102119;23;20482;-69
2022/04/11 04:45:16;;;;;;;2.83;2.72;;;;;;;1.89;76.60;101423.34;6128773;23;20028;-69
2022/04/11 04:47:42;;;;;;;2.80;2.70;;;;;;;1.92;76.01;101436.25;6119759;23;20023;-69
2022/04/11 04:50:09;;;;;;;2.75;2.65;;;;;;;1.87;75.95;101439.75;6127925;23;20019;-69
2022/04/11 04:52:38;;;;;;;4.70;4.50;;;;;;;1.79;76.19;101434.59;6111021;23;20035;-69
2022/04/11 04:55:05;;;;;;;2.90;2.80;;;;;;;1.70;77.21;101413.94;6116383;23;20477;-70
2022/04/11 04:57:31;;;;;;;4.15;3.95;;;;;;;1.79;76.78;101429.44;6117301;23;20050;-70
2022/04/11 04:59:58;;;;;;;3.20;3.10;;;;;;;0.85;76.82;101278.91;6113427;23;20050;-70
2022/04/11 05:02:24;;;;;;;2.92;2.83;;;;;;;1.64;76.91;101425.16;6125413;23;20019;-70
2022/04/11 05:04:51;;;;;;;2.70;2.60;;;;;;;1.70;77.27;101440.66;6115023;23;20021;-70
2022/04/11 05:07:17;;;;;;;2.90;2.80;;;;;;;1.50;76.95;101404.50;6117712;23;20022;-70
2022/04/11 05:09:43;;;;;;;4.18;3.97;;;;;;;1.67;77.31;101426.91;6108488;23;20290;-72
2022/04/11 05:12:10;;;;;;;3.10;3.00;;;;;;;1.40;77.33;101382.13;6111350;23;20099;-75
2022/04/11 05:14:36;;;;;;;4.35;4.15;;;;;;;1.59;77.33;101406.22;6095130;23;20051;-70
2022/04/11 05:17:03;;;;;;;2.92;2.83;;;;;;;1.45;77.86;101383.00;6083686;23;20466;-70
2022/04/11 05:19:29;;;;;;;4.57;4.38;;;;;;;1.55;77.59;101405.38;6122294;23;20510;-74
2022/04/11 05:21:57;;;;;;;3.15;3.05;;;;;;;1.45;77.43;101382.13;6115943;23;20060;-74
2022/04/11 05:24:24;;;;;;;2.80;2.70;;;;;;;1.57;77.35;101390.69;6098458;23;20052;-74
2022/04/11 05:26:50;;;;;;;2.88;2.78;;;;;;;1.96;77.62;101439.69;6119878;23;20025;-70
2022/04/11 05:29:16;;;;;;;2.70;2.60;;;;;;;1.90;77.53;101413.84;6093017;23;20262;-73
2022/04/11 05:31:43;;;;;;;4.47;4.28;;;;;;;1.81;77.66;101375.09;6105114;23;20084;-72
2022/04/11 05:34:09;;;;;;;2.80;2.70;;;;;;;2.18;76.81;101399.00;6085840;23;20033;-73
2022/04/11 05:36:36;;;;;;;4.55;4.35;;;;;;;2.57;75.43;101439.34;6085260;23;20729;-70
2022/04/11 05:39:02;;;;;;;3.38;3.17;;;;;;;2.77;74.65;101434.00;6060566;23;20061;-71
2022/04/11 05:41:29;;;;;;;3.17;3.08;;;;;;;2.97;73.78;101440.75;6079210;23;20138;-75
2022/04/11 05:43:55;;;;;;;2.80;2.70;;;;;;;3.18;73.65;101442.28;6055443;23;20383;-72
2022/04/11 05:46:22;;;;;;;2.90;2.80;;;;;;;3.36;72.81;101438.66;6085830;23;20033;-74
2022/04/11 05:48:48;;;;;;;3.38;3.28;;;;;;;3.33;71.60;101394.59;6080214;23;20618;-73
2022/04/11 05:51:15;;;;;;;2.92;2.83;;;;;;;2.55;71.07;101235.53;6111141;23;20266;-70
2022/04/11 05:53:41;;;;;;;4.57;4.38;;;;;;;3.79;70.25;101423.47;6074575;23;20089;-70
2022/04/11 05:56:08;;;;;;;3.25;3.10;;;;;;;3.74;70.31;101403.63;6076792;23;20021;-70
2022/04/11 05:58:34;;;;;;;4.55;4.35;;;;;;;3.94;69.43;101434.53;6057161;23;20097;-70
2022/04/11 06:01:01;;;;;;;3.20;3.10;;;;;;;3.82;69.38;101386.19;6108140;23;20441;-71
2022/04/11 06:03:28;;;;;;;3.63;3.47;;;;;;;3.93;69.30;101386.94;6080296;23;20481;-71
2022/04/11 06:05:54;;;;;;;3.33;3.22;;;;;;;3.97;69.23;101396.41;6097436;23;20350;-71
2022/04/11 06:08:21;;;;;;;3.20;3.10;;;;;;;4.18;69.64;101416.00;6077769;23;20454;-70
2022/04/11 06:10:48;;;;;;;3.13;3.03;;;;;;;4.23;69.60;101422.88;6102550;23;20471;-71
2022/04/11 06:13:14;;;;;;;3.03;2.92;;;;;;;4.21;69.73;101415.13;6071882;23;20029;-71
2022/04/11 06:15:41;;;;;;;3.30;3.20;;;;;;;3.73;69.69;101311.91;6112329;23;20017;-71
2022/04/11 06:18:07;;;;;;;3.20;3.10;;;;;;;4.54;68.82;101425.88;6091839;23;20072;-70
2022/04/11 06:20:34;;;;;;;4.97;4.78;;;;;;;4.32;68.41;101347.41;6114901;23;20009;-70
2022/04/11 06:23:01;;;;;;;3.20;3.10;;;;;;;4.46;66.72;101355.81;6078409;23;20321;-71
2022/04/11 06:25:27;;;;;;;3.97;3.67;;;;;;;4.92;67.52;101407.06;6087483;23;20024;-70
2022/04/11 06:27:54;;;;;;;3.40;3.30;;;;;;;5.11;66.88;101427.53;6108003;23;20440;-70
2022/04/11 06:30:20;;;;;;;3.30;3.20;;;;;;;5.02;65.81;101388.69;6082128;23;20532;-71
2022/04/11 06:32:47;;;;;;;3.38;3.28;;;;;;;5.15;65.93;101409.25;6092706;23;20014;-69
2022/04/11 06:35:14;;;;;;;3.33;3.22;;;;;;;5.35;64.98;101415.81;6110786;23;20031;-70
2022/04/11 06:37:41;;;;;;;3.30;3.20;;;;;;;5.44;65.76;101400.03;6006678;23;20282;-71
2022/04/11 06:40:08;;;;;;;3.20;3.10;;;;;;;5.70;63.85;101425.53;6096602;23;20087;-71
2022/04/11 06:42:34;;;;;;;3.15;3.05;;;;;;;5.59;64.39;101378.91;6120340;23;20021;-71
2022/04/11 06:45:01;;;;;;;3.72;3.60;;;;;;;5.91;64.06;101415.56;6128434;23;20433;-71
2022/04/11 06:47:27;;;;;;;3.58;3.47;;;;;;;5.82;63.36;101392.34;6110102;23;20092;-71
2022/04/11 06:49:53;;;;;;;3.63;3.53;;;;;;;5.93;62.15;101379.91;6110652;23;20025;-70
2022/04/11 06:52:20;;;;;;;3.80;3.70;;;;;;;6.04;62.82;101401.44;6108817;23;20018;-71
2022/04/11 06:54:46;;;;;;;3.53;3.42;;;;;;;6.22;62.26;101399.31;6113614;23;20045;-71
2022/04/11 06:57:13;;;;;;;3.42;3.33;;;;;;;6.46;61.85;101418.75;6111485;23;20103;-71
2022/04/11 06:59:39;;;;;;;4.85;4.65;;;;;;;6.54;60.40;101416.81;6109802;23;20037;-71
2022/04/11 07:02:06;;;;;;;3.50;3.40;;;;;;;6.08;60.77;101365.75;6112138;23;20529;-71
2022/04/11 07:04:33;;;;;;;4.78;4.57;;;;;;;6.70;59.63;101419.91;6084061;23;20075;-71
2022/04/11 07:06:59;;;;;;;3.50;3.40;;;;;;;6.85;59.57;101418.66;6108649;23;20032;-73
2022/04/11 07:09:31;;;;;;;5.37;5.17;;;;;;;6.78;60.41;101408.38;6070058;23;20071;-69
2022/04/11 07:11:58;;;;;;;4.00;3.80;;;;;;;7.02;59.25;101413.88;6114288;23;20084;-72
2022/04/11 07:14:27;;;;;;;3.60;3.50;;;;;;;7.09;59.67;101412.78;6114376;23;20016;-71
2022/04/11 07:16:53;;;;;;;3.50;3.40;;;;;;;7.13;59.88;101397.91;6105309;23;20017;-68
2022/04/11 07:19:20;;;;;;;3.60;3.50;;;;;;;7.12;58.53;101385.78;6098987;23;20016;-69
2022/04/11 07:21:47;;;;;;;3.88;3.70;;;;;;;7.24;58.62;101382.00;6102631;23;20017;-69
2022/04/11 07:24:14;;;;;;;3.60;3.50;;;;;;;7.28;58.19;101357.50;6102919;23;20060;-70
2022/04/11 07:26:41;;;;;;;5.05;4.85;;;;;;;7.57;57.02;101388.00;6105420;23;20096;-68
2022/04/11 07:29:07;;;;;;;3.75;3.65;;;;;;;7.73;58.36;101410.16;6119897;23;20025;-71
2022/04/11 07:31:34;;;;;;;5.35;5.15;;;;;;;7.65;57.20;101370.34;6101354;23;20526;-71
2022/04/11 07:34:01;;;;;;;3.97;3.78;;;;;;;7.93;58.18;101411.34;6105148;23;20002;-71
2022/04/11 07:36:29;;;;;;;4.22;4.03;;;;;;;8.11;57.02;101409.94;6113520;23;20040;-71
2022/04/11 07:38:56;;;;;;;3.85;3.70;;;;;;;8.16;55.09;101408.06;6109337;23;20037;-71
2022/04/11 07:41:26;;;;;;;3.67;3.58;;;;;;;8.14;55.90;101387.19;6109976;23;20189;-70
2022/04/11 07:43:58;;;;;;;3.90;3.80;;;;;;;8.37;55.47;101402.13;6114383;23;20425;-72
2022/04/11 07:46:24;;;;;;;3.97;3.78;;;;;;;8.50;54.75;101407.00;6097803;23;20021;-69
2022/04/11 07:48:51;;;;;;;4.00;3.80;;;;;;;8.46;54.70;101401.03;6106874;23;20614;-71
2022/04/11 07:51:17;;;;;;;3.85;3.72;;;;;;;8.51;54.17;101387.81;6104371;23;20027;-71
2022/04/11 07:53:44;;;;;;;5.05;4.85;;;;;;;8.48;54.62;101373.06;6121676;23;20209;-69
2022/04/11 07:56:10;;;;;;;3.75;3.65;;;;;;;8.63;53.37;101382.16;6114825;23;20045;-72
2022/04/11 07:58:37;;;;;;;4.95;4.75;;;;;;;8.70;54.62;101373.22;6112086;23;20249;-69
2022/04/11 08:01:03;;;;;;;3.70;3.60;;;;;;;8.89;53.85;101383.06;6128526;23;20102;-69
2022/04/11 08:03:30;;;;;;;4.50;4.30;;;;;;;9.01;52.90;101381.78;6122980;23;20009;-69
2022/04/11 08:05:56;;;;;;;4.43;4.22;;;;;;;8.19;52.13;101219.69;6107122;23;20471;-71
2022/04/11 08:08:23;;;;;;;3.80;3.70;;;;;;;9.02;52.84;101342.47;6110912;23;20017;-70
2022/04/11 08:10:49;;;;;;;3.80;3.70;;;;;;;8.70;52.33;101273.78;6111646;23;20026;-69
2022/04/11 08:13:16;;;;;;;4.28;4.07;;;;;;;9.43;51.68;101389.03;6115755;23;20405;-70
2022/04/11 08:15:42;;;;;;;5.05;4.85;;;;;;;9.65;52.23;101387.31;6104638;23;20978;-70
2022/04/11 08:18:09;;;;;;;4.03;3.90;;;;;;;9.80;52.74;101391.13;6112371;23;20658;-70
2022/04/11 08:20:35;;;;;;;4.88;4.68;;;;;;;9.85;50.37;101355.09;6114870;23;20031;-70
2022/04/11 08:23:01;;;;;;;4.28;3.90;;;;;;;9.92;49.34;101356.59;6117848;23;20037;-70
2022/04/11 08:25:28;;;;;;;4.72;4.53;;;;;;;9.93;50.14;101383.66;6128216;23;20438;-69
2022/04/11 08:27:54;;;;;;;3.90;3.72;;;;;;;9.95;48.45;101366.09;6110384;23;20567;-70
2022/04/11 08:30:21;;;;;;;3.80;3.70;;;;;;;9.82;48.67;101336.00;6111975;23;20064;-69
2022/04/11 08:32:50;;;;;;;3.72;3.63;;;;;;;9.71;49.00;101323.34;6105264;23;20025;-69
2022/04/11 08:35:19;;;;;;;4.18;3.97;;;;;;;10.26;48.54;101372.75;6100503;23;20458;-69
2022/04/11 08:37:46;;;;;;;4.20;4.00;;;;;;;10.33;47.48;101358.50;6110568;23;20607;-69
2022/04/11 08:40:15;;;;;;;4.10;3.90;;;;;;;10.36;48.39;101369.75;6116805;23;20032;-70
2022/04/11 08:42:44;;;;;;;5.35;5.15;;;;;;;10.38;47.44;101362.66;6110104;23;20720;-70
2022/04/11 08:45:13;;;;;;;4.00;3.80;;;;;;;10.27;47.64;101335.97;6126738;23;20390;-70
2022/04/11 08:47:41;;;;;;;5.75;5.53;;;;;;;10.62;46.95;101370.41;6105188;23;20045;-70
2022/04/11 08:50:09;;;;;;;4.20;4.00;;;;;;;10.87;45.64;101366.78;6105011;23;20087;-71
2022/04/11 08:52:37;;;;;;;5.78;5.47;;;;;;;11.03;46.24;101366.97;6115424;23;20377;-70
2022/04/11 08:55:04;;;;;;;4.63;4.43;;;;;;;11.16;45.29;101366.38;6117515;23;20360;-70
2022/04/11 08:57:31;;;;;;;5.65;5.45;;;;;;;11.00;44.67;101354.81;6117115;23;20052;-70
2022/04/11 09:00:09;;;;;;;4.63;4.43;;;;;;;10.86;44.43;101323.06;6122266;23;20026;-71
2022/04/11 09:02:37;;;;;;;5.43;5.22;;;;;;;11.11;45.03;101338.59;6085135;23;20285;-71
2022/04/11 09:05:05;;;;;;;4.35;4.15;;;;;;;10.74;44.19;101283.31;6087514;23;20025;-71
2022/04/11 09:07:55;;;;;;;5.43;5.22;;;;;;;11.12;43.48;101332.41;6103807;23;20077;-70
2022/04/11 09:10:24;;;;;;;4.57;4.38;;;;;;;10.99;44.31;101313.72;6113588;23;20060;-72
2022/04/11 09:12:56;;;;;;;4.80;4.60;;;;;;;11.34;44.76;101334.94;6116616;23;20623;-71
2022/04/11 09:15:23;;;;;;;4.40;4.20;;;;;;;11.39;43.51;101332.97;6129791;23;20017;-71
2022/04/11 09:17:51;;;;;;;4.40;4.20;;;;;;;11.44;42.89;101332.75;6126161;23;20030;-71
2022/04/11 09:20:41;;;;;;;4.55;4.35;;;;;;;11.63;43.70;101330.97;6112326;23;20084;-71
2022/04/11 09:23:21;;;;;;;6.47;4.60;;;;;;;11.80;42.91;101321.44;6118038;23;20025;-70
2022/04/11 09:25:48;;;;;;;4.80;4.60;;;;;;;12.01;43.85;101330.97;6096481;23;20044;-70
2022/04/11 09:28:14;;;;;;;4.28;4.07;;;;;;;11.43;40.96;101250.44;6116544;23;20435;-70
2022/04/11 09:30:44;;;;;;;4.43;4.22;;;;;;;11.93;39.88;101336.59;6086158;23;20416;-70
2022/04/11 09:33:12;;;;;;;4.50;4.30;;;;;;;11.65;40.38;101308.09;6109639;23;20040;-71
2022/04/11 09:35:44;;;;;;;5.45;5.25;;;;;;;12.16;40.16;101326.75;6085939;23;20024;-71
2022/04/11 09:38:12;;;;;;;4.43;4.22;;;;;;;12.14;39.50;101321.56;6114045;23;20029;-70
2022/04/11 09:40:44;;;;;;;6.07;5.78;;;;;;;12.12;40.04;101315.50;6080708;23;20010;-71
2022/04/11 09:43:12;;;;;;;4.33;4.13;;;;;;;12.27;38.92;101326.25;6109357;23;20017;-71
2022/04/11 09:45:40;;;;;;;6.18;5.88;;;;;;;12.05;39.54;101295.72;6076425;23;20026;-71
2022/04/11 09:48:08;;;;;;;4.70;4.50;;;;;;;12.44;39.94;101297.28;6079323;23;20022;-71
2022/04/11 09:50:35;;;;;;;6.07;5.78;;;;;;;12.54;40.04;101321.38;6059168;23;20024;-71
2022/04/11 09:53:18;;;;;;;4.50;4.30;;;;;;;12.52;38.72;101316.16;6115660;23;20148;-70
2022/04/11 09:55:48;;;;;;;5.68;5.47;;;;;;;12.62;38.77;101323.63;6072791;23;20042;-69
2022/04/11 09:58:16;;;;;;;4.70;4.50;;;;;;;12.19;39.62;101266.09;6111839;23;20032;-70
2022/04/11 10:00:43;;;;;;;6.28;5.97;;;;;;;12.64;38.70;101301.53;6079354;23;20022;-70
2022/04/11 10:03:10;;;;;;;4.50;4.30;;;;;;;12.69;38.45;101296.91;6108148;23;20026;-70
2022/04/11 10:05:41;;;;;;;7.25;6.85;;;;;;;13.00;38.67;101310.25;6064925;23;20043;-70
2022/04/11 10:08:09;;;;;;;4.82;4.63;;;;;;;12.85;39.41;101310.13;6074776;23;20026;-71
2022/04/11 10:10:39;;;;;;;6.45;6.15;;;;;;;13.20;38.56;101306.56;6103305;23;20037;-71
2022/04/11 10:13:13;;;;;;;4.80;4.60;;;;;;;13.44;38.62;101289.44;6080827;23;20816;-70
2022/04/11 10:15:42;;;;;;;5.85;5.60;;;;;;;13.14;36.77;101291.91;6074201;23;20021;-71
2022/04/11 10:18:12;;;;;;;4.40;4.20;;;;;;;13.03;37.67;101239.81;6091288;23;20026;-70
2022/04/11 10:20:42;;;;;;;6.32;6.03;;;;;;;13.30;37.06;101282.28;6127928;23;20159;-71
2022/04/11 10:23:31;;;;;;;5.22;5.00;;;;;;;13.41;35.99;101284.34;6061775;23;20071;-71
2022/04/11 10:25:59;;;;;;;4.78;4.57;;;;;;;13.35;35.74;101285.53;6073652;23;20016;-70
2022/04/11 10:28:30;;;;;;;4.68;4.47;;;;;;;13.25;36.66;101279.03;6078924;23;20016;-72
2022/04/11 10:31:09;;;;;;;4.90;4.60;;;;;;;13.32;37.92;101271.66;6053676;23;20069;-70
2022/04/11 10:33:49;;;;;;;5.93;5.65;;;;;;;13.63;37.45;101269.97;6077634;23;20091;-70
2022/04/11 10:36:30;;;;;;;4.35;4.15;;;;;;;13.69;36.53;101266.97;6046824;23;20017;-70
2022/04/11 10:39:14;;;;;;;4.60;4.40;;;;;;;13.89;36.27;101263.22;6080455;23;20054;-71
2022/04/11 10:41:56;;;;;;;6.40;6.10;;;;;;;14.09;35.57;101259.44;6049780;23;20041;-71
2022/04/11 10:44:35;;;;;;;4.60;4.40;;;;;;;13.92;33.69;101234.88;6083293;23;20080;-71
2022/04/11 10:47:08;;;;;;;4.80;4.60;;;;;;;14.04;33.65;101264.97;6079144;23;20080;-71
2022/04/11 10:49:49;;;;;;;6.15;5.85;;;;;;;13.94;33.05;101256.75;6078730;23;20062;-72
2022/04/11 10:52:35;;;;;;;5.28;4.97;;;;;;;13.91;34.56;101262.22;6082421;23;20344;-71
2022/04/11 10:55:17;;;;;;;4.85;4.65;;;;;;;13.81;34.22;101216.19;6081046;23;21142;-72
2022/04/11 10:57:48;;;;;;;4.40;4.20;;;;;;;14.07;34.92;101240.19;6075194;23;20057;-72
2022/04/11 11:00:17;;;;;;;4.80;4.60;;;;;;;14.12;34.41;101232.88;6075782;23;20060;-71
2022/04/11 11:02:52;;;;;;;6.10;5.78;;;;;;;14.15;31.28;101249.38;6075277;23;20076;-69
2022/04/11 11:05:32;;;;;;;4.63;4.43;;;;;;;14.02;32.94;101239.63;6081030;23;20292;-70
2022/04/11 11:08:14;;;;;;;4.85;4.65;;;;;;;14.03;32.39;101244.81;6052534;23;20199;-72
2022/04/11 11:10:55;;;;;;;6.15;5.85;;;;;;;14.20;33.55;101230.63;6072380;23;20014;-71
2022/04/11 11:13:34;;;;;;;4.80;4.60;;;;;;;14.36;33.23;101226.13;6082411;23;20014;-71
2022/04/11 11:16:07;;;;;;;5.05;4.75;;;;;;;14.56;33.12;101217.03;6078582;23;20305;-71
2022/04/11 11:18:49;;;;;;;6.20;5.90;;;;;;;14.51;32.87;101224.38;6072581;23;20017;-71
2022/04/11 11:21:44;;;;;;;5.10;4.70;;;;;;;14.42;33.46;101210.88;6082519;23;20054;-71
2022/04/11 11:24:12;;;;;;;4.72;4.53;;;;;;;14.35;33.62;101213.88;6097887;23;20097;-71
2022/04/11 11:26:48;;;;;;;6.13;5.82;;;;;;;14.40;33.42;101197.75;6086435;23;20416;-71
2022/04/11 11:29:19;;;;;;;4.90;4.70;;;;;;;14.41;34.46;101188.88;6088512;23;20026;-71
2022/04/11 11:31:49;;;;;;;4.57;4.38;;;;;;;13.66;34.07;101049.09;6082010;23;20054;-72
2022/04/11 11:34:18;;;;;;;4.60;4.40;;;;;;;14.30;33.66;101197.47;6062096;23;20033;-71
2022/04/11 11:36:44;;;;;;;6.00;5.70;;;;;;;14.21;34.14;101170.75;6084579;23;20034;-71